createdAt,value
2017-05-29T00:00:55.110Z,3.56
2017-05-29T00:03:23.490Z,3.24
2017-05-29T00:05:51.800Z,4.12
2017-05-29T00:08:20.875Z,3.72
2017-05-29T00:10:49.979Z,2.88
2017-05-29T00:13:18.304Z,4.40
2017-05-29T00:15:46.675Z,3.68
2017-05-29T00:18:14.982Z,4.16
2017-05-29T00:20:43.281Z,3.32
2017-05-29T00:23:11.738Z,3.94
2017-05-29T00:25:40.039Z,2.90
2017-05-29T00:28:08.361Z,4.02
2017-05-29T00:30:37.502Z,3.80
2017-05-29T00:33:05.827Z,3.80
2017-05-29T00:35:34.170Z,4.92
2017-05-29T00:38:03.246Z,4.08
2017-05-29T00:40:31.553Z,3.62
2017-05-29T00:42:59.947Z,3.70
2017-05-29T00:45:28.253Z,3.78
2017-05-29T00:48:00.130Z,4.70
2017-05-29T00:50:28.438Z,4.06
2017-05-29T00:52:56.742Z,3.80
2017-05-29T00:55:25.850Z,3.88
2017-05-29T00:57:54.158Z,4.16
2017-05-29T01:00:22.465Z,4.44
2017-05-29T01:02:50.809Z,3.92
2017-05-29T01:05:20.146Z,3.44
2017-05-29T01:07:48.450Z,3.60
2017-05-29T01:10:16.817Z,3.44
2017-05-29T01:12:45.127Z,3.60
2017-05-29T01:15:14.203Z,3.30
2017-05-29T01:17:42.554Z,3.40
2017-05-29T01:20:10.861Z,3.28
2017-05-29T01:22:39.168Z,3.46
2017-05-29T01:25:07.523Z,3.30
2017-05-29T01:27:35.848Z,3.12
2017-05-29T01:30:04.153Z,3.66
2017-05-29T01:32:32.496Z,3.76
2017-05-29T01:35:00.795Z,3.70
2017-05-29T01:37:29.866Z,3.10
2017-05-29T01:39:58.202Z,3.54
2017-05-29T01:42:26.505Z,3.98
2017-05-29T01:44:54.809Z,4.34
2017-05-29T01:47:23.133Z,3.56
2017-05-29T01:49:51.469Z,3.76
2017-05-29T01:52:19.814Z,3.68
2017-05-29T01:54:48.929Z,3.88
2017-05-29T01:57:17.232Z,3.32
2017-05-29T01:59:45.597Z,3.78
2017-05-29T02:02:13.902Z,3.86
2017-05-29T02:04:42.219Z,3.28
2017-05-29T02:07:10.561Z,3.12
2017-05-29T02:09:38.865Z,2.92
2017-05-29T02:12:07.172Z,3.92
2017-05-29T02:14:36.277Z,3.52
2017-05-29T02:17:04.581Z,4.60
2017-05-29T02:19:32.878Z,3.92
2017-05-29T02:22:01.231Z,3.86
2017-05-29T02:24:29.539Z,4.68
2017-05-29T02:26:57.836Z,4.28
2017-05-29T02:29:26.170Z,3.44
2017-05-29T02:31:55.262Z,4.00
2017-05-29T02:34:23.605Z,4.08
2017-05-29T02:36:51.912Z,4.10
2017-05-29T02:39:21.081Z,4.68
2017-05-29T02:41:49.419Z,3.84
2017-05-29T02:44:18.493Z,3.74
2017-05-29T02:46:46.807Z,4.90
2017-05-29T02:49:15.160Z,4.42
2017-05-29T02:51:43.483Z,4.06
2017-05-29T02:54:11.797Z,4.04
2017-05-29T02:56:40.934Z,4.16
2017-05-29T02:59:09.242Z,4.10
2017-05-29T03:01:37.536Z,4.00
2017-05-29T03:04:05.893Z,4.54
2017-05-29T03:06:34.197Z,4.26
2017-05-29T03:09:02.497Z,4.02
2017-05-29T03:11:30.832Z,3.76
2017-05-29T03:13:59.208Z,3.50
2017-05-29T03:16:27.548Z,3.68
2017-05-29T03:18:56.462Z,4.80
2017-05-29T03:21:24.766Z,4.46
2017-05-29T03:23:53.118Z,4.44
2017-05-29T03:26:21.446Z,4.52
2017-05-29T03:28:49.753Z,4.84
2017-05-29T03:31:18.106Z,4.66
2017-05-29T03:33:46.407Z,5.16
2017-05-29T03:36:14.714Z,4.82
2017-05-29T03:38:43.074Z,4.42
2017-05-29T03:41:11.379Z,4.42
2017-05-29T03:43:40.455Z,5.06
2017-05-29T03:46:08.797Z,5.28
2017-05-29T03:48:37.129Z,4.94
2017-05-29T03:51:05.429Z,5.32
2017-05-29T03:53:33.757Z,5.28
2017-05-29T03:56:02.073Z,4.82
2017-05-29T03:58:31.138Z,4.92
2017-05-29T04:00:59.490Z,4.82
2017-05-29T04:03:27.789Z,4.82
2017-05-29T04:05:56.096Z,5.46
2017-05-29T04:08:24.432Z,5.50
2017-05-29T04:10:52.746Z,5.82
2017-05-29T04:13:22.049Z,5.94
2017-05-29T04:15:50.396Z,6.28
2017-05-29T04:18:18.700Z,6.70
2017-05-29T04:20:47.006Z,6.46
2017-05-29T04:23:15.340Z,5.60
2017-05-29T04:25:43.670Z,6.04
2017-05-29T04:28:12.048Z,6.20
2017-05-29T04:30:40.495Z,6.20
2017-05-29T04:33:09.612Z,6.06
2017-05-29T04:35:37.955Z,6.10
2017-05-29T04:38:06.260Z,6.68
2017-05-29T04:40:34.564Z,6.98
2017-05-29T04:43:02.957Z,6.28
2017-05-29T04:45:31.270Z,6.74
2017-05-29T04:47:59.582Z,5.72
2017-05-29T04:50:27.914Z,6.06
2017-05-29T04:52:56.234Z,5.82
2017-05-29T04:55:25.357Z,5.70
2017-05-29T04:57:53.696Z,6.20
2017-05-29T05:00:22.029Z,6.24
2017-05-29T05:02:50.367Z,6.68
2017-05-29T05:05:18.676Z,6.72
2017-05-29T05:07:46.978Z,5.66
2017-05-29T05:10:15.320Z,7.40
2017-05-29T05:12:44.401Z,6.16
2017-05-29T05:15:12.711Z,6.20
2017-05-29T05:17:41.111Z,6.26
2017-05-29T05:20:09.415Z,7.00
2017-05-29T05:22:37.717Z,6.90
2017-05-29T05:25:06.825Z,6.28
2017-05-29T05:27:35.130Z,6.70
2017-05-29T05:30:03.446Z,5.82
2017-05-29T05:32:31.800Z,7.02
2017-05-29T05:35:00.114Z,6.96
2017-05-29T05:37:29.258Z,7.46
2017-05-29T05:39:57.639Z,6.84
2017-05-29T05:42:25.958Z,6.88
2017-05-29T05:44:54.257Z,8.38
2017-05-29T05:47:23.215Z,7.36
2017-05-29T05:49:51.521Z,7.80
2017-05-29T05:52:19.825Z,7.16
2017-05-29T05:54:48.177Z,7.08
2017-05-29T05:57:16.478Z,6.76
2017-05-29T05:59:44.780Z,7.98
2017-05-29T06:02:13.138Z,6.62
2017-05-29T06:04:41.500Z,6.50
2017-05-29T06:07:10.035Z,6.50
2017-05-29T06:09:39.201Z,7.60
2017-05-29T06:12:07.501Z,6.76
2017-05-29T06:14:35.801Z,5.54
2017-05-29T06:17:04.191Z,7.52
2017-05-29T06:19:32.490Z,6.74
2017-05-29T06:22:01.570Z,6.10
2017-05-29T06:24:29.921Z,6.62
2017-05-29T06:26:58.991Z,5.78
2017-05-29T06:29:27.302Z,5.48
2017-05-29T06:31:55.650Z,6.60
2017-05-29T06:34:23.982Z,6.42
2017-05-29T06:36:52.291Z,5.80
2017-05-29T06:39:20.660Z,5.72
2017-05-29T06:41:48.962Z,6.64
2017-05-29T06:44:18.038Z,5.98
2017-05-29T06:46:47.148Z,6.06
2017-05-29T06:49:15.514Z,4.84
2017-05-29T06:51:43.858Z,5.26
2017-05-29T06:54:12.157Z,5.76
2017-05-29T06:56:41.227Z,5.30
2017-05-29T06:59:09.578Z,5.54
2017-05-29T07:01:37.891Z,5.50
2017-05-29T07:04:06.205Z,5.40
2017-05-29T07:06:34.553Z,5.54
2017-05-29T07:09:02.862Z,5.00
2017-05-29T07:11:31.160Z,5.16
2017-05-29T07:13:59.505Z,4.72
2017-05-29T07:16:27.834Z,4.40
2017-05-29T07:18:56.144Z,4.60
2017-05-29T07:21:25.213Z,5.30
2017-05-29T07:23:53.634Z,4.96
2017-05-29T07:26:21.937Z,4.54
2017-05-29T07:28:50.288Z,5.30
2017-05-29T07:31:18.602Z,5.58
2017-05-29T07:33:46.911Z,5.40
2017-05-29T07:36:15.276Z,4.16
2017-05-29T07:38:43.593Z,5.30
2017-05-29T07:41:11.910Z,4.72
2017-05-29T07:43:40.277Z,4.96
2017-05-29T07:46:08.591Z,4.26
2017-05-29T07:48:36.898Z,4.58
2017-05-29T07:51:05.226Z,5.00
2017-05-29T07:53:33.537Z,4.60
2017-05-29T07:56:01.868Z,4.24
2017-05-29T07:58:30.177Z,4.56
2017-05-29T08:00:58.481Z,3.60
2017-05-29T08:03:26.824Z,3.66
2017-05-29T08:05:55.147Z,3.98
2017-05-29T08:08:23.450Z,4.48
2017-05-29T08:10:51.797Z,4.66
2017-05-29T08:13:20.101Z,4.86
2017-05-29T08:15:49.170Z,3.70
2017-05-29T08:18:17.515Z,4.42
2017-05-29T08:20:45.837Z,4.66
2017-05-29T08:23:14.145Z,8.62
2017-05-29T08:25:43.251Z,4.72
2017-05-29T08:28:11.554Z,4.68
2017-05-29T08:30:39.866Z,5.40
2017-05-29T08:33:08.207Z,6.00
2017-05-29T08:35:36.509Z,4.88
2017-05-29T08:38:04.810Z,5.28
2017-05-29T08:40:33.154Z,5.30
2017-05-29T08:43:01.469Z,4.72
2017-05-29T08:45:29.838Z,4.94
2017-05-29T08:47:58.183Z,5.08
2017-05-29T08:50:26.489Z,5.10
2017-05-29T08:52:54.798Z,4.88
2017-05-29T08:55:23.181Z,4.96
2017-05-29T08:57:51.482Z,4.62
2017-05-29T09:00:19.790Z,4.18
2017-05-29T09:02:48.122Z,4.06
2017-05-29T09:05:16.426Z,5.22
2017-05-29T09:07:44.795Z,5.04
2017-05-29T09:10:13.106Z,4.60
2017-05-29T09:12:41.409Z,4.80
2017-05-29T09:15:09.763Z,4.90
2017-05-29T09:17:38.078Z,4.58
2017-05-29T09:20:06.454Z,5.56
2017-05-29T09:22:34.811Z,5.32
2017-05-29T09:25:03.121Z,4.92
2017-05-29T09:27:31.428Z,5.26
2017-05-29T09:29:59.773Z,5.40
2017-05-29T09:32:28.095Z,5.64
2017-05-29T09:34:57.171Z,4.96
2017-05-29T09:37:25.643Z,5.28
2017-05-29T09:39:53.960Z,5.10
2017-05-29T09:42:23.031Z,7.30
2017-05-29T09:57:40.142Z,5.18
2017-05-29T10:00:08.445Z,4.66
2017-05-29T10:02:36.745Z,4.24
2017-05-29T10:05:05.090Z,4.52
2017-05-29T10:07:33.399Z,4.80
2017-05-29T10:10:01.713Z,5.48
2017-05-29T10:12:30.838Z,5.30
2017-05-29T10:14:59.908Z,5.06
2017-05-29T10:17:28.212Z,4.68
2017-05-29T10:19:56.569Z,4.86
2017-05-29T10:22:24.874Z,5.36
2017-05-29T10:24:53.181Z,5.10
2017-05-29T10:27:21.529Z,4.92
2017-05-29T10:29:49.857Z,5.08
2017-05-29T10:32:18.930Z,5.00
2017-05-29T10:34:47.287Z,4.86
2017-05-29T10:37:15.591Z,5.08
2017-05-29T10:39:43.894Z,4.60
2017-05-29T10:42:12.244Z,4.82
2017-05-29T10:44:40.547Z,4.62
2017-05-29T10:47:08.884Z,5.84
2017-05-29T10:49:37.221Z,4.82
2017-05-29T10:52:05.531Z,5.72
2017-05-29T10:54:33.850Z,4.80
2017-05-29T10:57:02.201Z,5.24
2017-05-29T10:59:31.265Z,4.98
2017-05-29T11:02:00.378Z,5.14
2017-05-29T11:04:28.681Z,4.40
2017-05-29T11:06:56.988Z,4.92
2017-05-29T11:09:25.329Z,4.80
2017-05-29T11:11:53.633Z,5.18
2017-05-29T11:14:21.937Z,4.70
2017-05-29T11:16:50.285Z,5.08
2017-05-29T11:19:18.592Z,4.60
2017-05-29T11:21:46.896Z,4.80
2017-05-29T11:24:15.231Z,5.00
2017-05-29T11:26:43.541Z,5.36
2017-05-29T11:29:11.843Z,5.54
2017-05-29T11:31:40.191Z,4.38
2017-05-29T11:34:08.485Z,5.38
2017-05-29T11:36:36.822Z,5.70
2017-05-29T11:39:05.158Z,5.46
2017-05-29T11:41:33.458Z,5.46
2017-05-29T11:44:01.760Z,4.28
2017-05-29T11:46:30.869Z,4.88
2017-05-29T11:48:59.168Z,5.30
2017-05-29T11:51:29.212Z,4.56
2017-05-29T11:53:57.542Z,4.78
2017-05-29T11:56:25.841Z,4.78
2017-05-29T11:58:54.179Z,4.94
2017-05-29T12:01:22.470Z,4.84
2017-05-29T12:03:50.769Z,4.60
2017-05-29T12:06:19.102Z,4.98
2017-05-29T12:08:47.442Z,5.00
2017-05-29T12:11:15.748Z,4.48
2017-05-29T12:13:44.100Z,4.96
2017-05-29T12:16:12.398Z,5.14
2017-05-29T12:18:40.706Z,5.36
2017-05-29T12:21:09.081Z,5.30
2017-05-29T12:23:37.381Z,4.82
2017-05-29T12:26:05.689Z,5.48
2017-05-29T12:28:34.028Z,4.62
2017-05-29T12:31:02.337Z,5.08
2017-05-29T12:33:30.739Z,5.06
2017-05-29T12:35:59.113Z,4.48
2017-05-29T12:38:27.412Z,4.92
2017-05-29T12:40:55.717Z,4.52
2017-05-29T12:43:24.828Z,4.18
2017-05-29T12:45:53.129Z,3.84
2017-05-29T12:48:22.198Z,4.46
2017-05-29T12:50:50.541Z,4.22
2017-05-29T12:53:18.835Z,4.66
2017-05-29T12:55:47.140Z,4.46
2017-05-29T12:58:15.493Z,4.06
2017-05-29T13:00:43.793Z,4.22
2017-05-29T13:03:12.097Z,4.02
2017-05-29T13:05:40.436Z,4.78
2017-05-29T13:08:08.780Z,3.94
2017-05-29T13:10:37.841Z,4.72
2017-05-29T13:13:06.194Z,3.62
2017-05-29T13:15:34.502Z,4.56
2017-05-29T13:18:02.802Z,4.70
2017-05-29T13:20:31.126Z,4.52
2017-05-29T13:22:59.429Z,4.36
2017-05-29T13:25:27.792Z,4.34
2017-05-29T13:27:56.093Z,4.50
2017-05-29T13:30:24.393Z,4.04
2017-05-29T13:32:52.741Z,4.72
2017-05-29T13:35:21.045Z,4.48
2017-05-29T13:37:49.345Z,4.12
2017-05-29T13:40:17.681Z,3.60
2017-05-29T13:42:45.982Z,4.08
2017-05-29T13:45:14.280Z,4.68
2017-05-29T13:47:42.609Z,4.28
2017-05-29T13:50:10.905Z,4.00
2017-05-29T13:52:39.974Z,4.04
2017-05-29T13:55:09.085Z,3.70
2017-05-29T13:57:37.394Z,4.48
2017-05-29T14:00:05.709Z,3.72
2017-05-29T14:02:34.036Z,3.74
2017-05-29T14:05:02.342Z,3.64
2017-05-29T14:07:30.844Z,4.02
2017-05-29T14:09:59.149Z,4.50
2017-05-29T14:12:27.451Z,4.28
2017-05-29T14:14:55.794Z,4.24
2017-05-29T14:17:24.091Z,3.96
2017-05-29T14:19:52.395Z,4.52
2017-05-29T14:22:20.734Z,4.02
2017-05-29T14:24:49.035Z,4.44
2017-05-29T14:27:17.343Z,4.16
2017-05-29T14:29:45.679Z,3.88
2017-05-29T14:32:13.977Z,4.68
2017-05-29T14:34:43.041Z,4.68
2017-05-29T14:37:11.496Z,3.98
2017-05-29T14:39:39.800Z,4.00
2017-05-29T14:42:08.876Z,4.52
2017-05-29T14:44:37.224Z,4.42
2017-05-29T14:47:06.285Z,4.08
2017-05-29T14:49:34.591Z,4.42
2017-05-29T14:52:02.921Z,4.70
2017-05-29T14:54:31.244Z,4.92
2017-05-29T14:56:59.546Z,4.88
2017-05-29T14:59:27.890Z,4.48
2017-05-29T15:01:56.190Z,5.42
2017-05-29T15:04:24.497Z,4.54
2017-05-29T15:06:52.864Z,5.20
2017-05-29T15:09:21.168Z,4.90
2017-05-29T15:11:49.463Z,4.96
2017-05-29T15:14:17.806Z,4.98
2017-05-29T15:16:46.165Z,4.92
2017-05-29T15:19:14.464Z,5.24
2017-05-29T15:21:42.808Z,5.40
2017-05-29T15:24:11.106Z,4.44
2017-05-29T15:26:39.481Z,5.20
2017-05-29T15:29:07.850Z,4.84
2017-05-29T15:31:36.149Z,5.92
2017-05-29T15:34:04.453Z,5.16
2017-05-29T15:36:32.800Z,5.62
2017-05-29T15:39:01.138Z,6.28
2017-05-29T15:41:30.626Z,5.60
2017-05-29T15:43:59.061Z,5.20
2017-05-29T15:46:27.366Z,6.22
2017-05-29T15:48:55.878Z,5.60
2017-05-29T15:51:24.982Z,5.34
2017-05-29T15:53:53.286Z,5.56
2017-05-29T15:56:21.587Z,5.98
2017-05-29T15:58:49.926Z,5.60
2017-05-29T16:01:18.239Z,5.30
2017-05-29T16:03:46.552Z,5.44
2017-05-29T16:06:14.875Z,6.02
2017-05-29T16:08:43.174Z,4.58
2017-05-29T16:11:11.515Z,5.38
2017-05-29T16:13:39.817Z,5.62
2017-05-29T16:16:08.123Z,5.32
2017-05-29T16:18:37.238Z,5.90
2017-05-29T16:21:05.617Z,4.84
2017-05-29T16:23:33.949Z,4.88
2017-05-29T16:26:02.287Z,5.24
2017-05-29T16:28:30.582Z,5.10
2017-05-29T16:30:59.652Z,5.32
2017-05-29T16:33:28.042Z,5.76
2017-05-29T16:35:56.353Z,5.70
2017-05-29T16:38:24.661Z,5.18
2017-05-29T16:40:53.005Z,5.52
2017-05-29T16:43:21.301Z,4.92
2017-05-29T16:45:49.609Z,5.26
2017-05-29T16:48:17.954Z,4.96
2017-05-29T16:50:46.266Z,4.78
2017-05-29T16:53:14.572Z,5.40
2017-05-29T16:55:43.673Z,4.86
2017-05-29T16:58:11.973Z,4.94
2017-05-29T17:00:40.286Z,4.92
2017-05-29T17:03:08.622Z,5.00
2017-05-29T17:05:37.707Z,5.22
2017-05-29T17:08:06.010Z,5.00
2017-05-29T17:10:34.406Z,4.76
2017-05-29T17:13:02.738Z,5.04
2017-05-29T17:15:31.090Z,4.88
2017-05-29T17:17:59.477Z,4.84
2017-05-29T17:20:27.778Z,5.78
2017-05-29T17:22:56.074Z,5.18
2017-05-29T17:25:24.445Z,5.08
2017-05-29T17:27:52.812Z,4.84
2017-05-29T17:30:21.180Z,4.80
2017-05-29T17:32:49.545Z,5.28
2017-05-29T17:35:17.849Z,4.96
2017-05-29T17:37:46.169Z,4.64
2017-05-29T17:40:14.513Z,4.58
2017-05-29T17:42:42.818Z,5.06
2017-05-29T17:45:11.880Z,5.62
2017-05-29T17:47:40.218Z,4.90
2017-05-29T17:50:08.554Z,5.40
2017-05-29T17:52:36.908Z,4.32
2017-05-29T17:55:05.205Z,4.30
2017-05-29T17:57:34.322Z,4.02
2017-05-29T18:00:02.627Z,3.92
2017-05-29T18:02:30.927Z,3.94
2017-05-29T18:04:59.267Z,3.68
2017-05-29T18:07:27.573Z,3.92
2017-05-29T18:09:55.962Z,3.72
2017-05-29T18:12:24.301Z,3.38
2017-05-29T18:14:53.396Z,3.76
2017-05-29T18:17:21.738Z,3.54
2017-05-29T18:19:50.044Z,3.72
2017-05-29T18:22:18.368Z,2.86
2017-05-29T18:24:46.754Z,2.80
2017-05-29T18:27:15.059Z,3.24
2017-05-29T18:29:43.361Z,3.54
2017-05-29T18:32:11.730Z,3.16
2017-05-29T18:34:40.029Z,3.62
2017-05-29T18:37:08.360Z,2.88
2017-05-29T18:39:36.706Z,2.92
2017-05-29T18:42:05.009Z,3.00
2017-05-29T18:44:34.077Z,3.22
2017-05-29T18:47:02.401Z,2.98
2017-05-29T18:49:30.705Z,2.70
2017-05-29T18:51:59.834Z,11.72
2017-05-29T18:54:28.137Z,3.88
2017-05-29T18:56:56.437Z,2.92
2017-05-29T18:59:25.316Z,4.10
2017-05-29T19:01:53.625Z,3.86
2017-05-29T19:04:21.938Z,3.70
2017-05-29T19:06:50.274Z,3.06
2017-05-29T19:09:18.596Z,4.12
2017-05-29T19:11:46.901Z,4.88
2017-05-29T19:14:15.249Z,4.88
2017-05-29T19:16:43.543Z,2.70
2017-05-29T19:19:11.846Z,2.92
2017-05-29T19:21:40.223Z,2.88
2017-05-29T19:24:08.525Z,2.92
2017-05-29T19:26:37.593Z,3.02
2017-05-29T19:29:06.701Z,3.18
2017-05-29T19:31:35.020Z,2.60
2017-05-29T19:34:03.332Z,3.24
2017-05-29T19:36:31.680Z,3.34
2017-05-29T19:39:00.752Z,4.84
2017-05-29T19:41:29.059Z,4.84
2017-05-29T19:43:57.477Z,3.74
2017-05-29T19:46:25.780Z,4.02
2017-05-29T19:48:54.077Z,4.20
2017-05-29T19:51:23.193Z,4.16
2017-05-29T19:53:51.488Z,3.44
2017-05-29T19:56:19.785Z,3.84
2017-05-29T19:58:48.140Z,3.66
2017-05-29T20:01:16.438Z,3.68
2017-05-29T20:03:44.736Z,3.70
2017-05-29T20:06:13.077Z,3.44
2017-05-29T20:08:42.153Z,4.46
2017-05-29T20:11:10.479Z,3.58
2017-05-29T20:13:38.820Z,4.50
2017-05-29T20:16:07.127Z,4.12
2017-05-29T20:18:35.418Z,4.06
2017-05-29T20:21:03.751Z,3.92
2017-05-29T20:23:32.041Z,3.68
2017-05-29T20:26:00.578Z,3.94
2017-05-29T20:28:28.906Z,3.58
2017-05-29T20:30:57.206Z,3.60
2017-05-29T20:33:26.325Z,3.78
2017-05-29T20:35:54.641Z,4.54
2017-05-29T20:38:22.934Z,4.66
2017-05-29T20:40:51.262Z,4.14
2017-05-29T20:43:19.567Z,4.34
2017-05-29T20:45:48.634Z,4.56
2017-05-29T20:48:16.983Z,4.74
2017-05-29T20:50:45.282Z,4.32
2017-05-29T20:53:13.574Z,5.02
2017-05-29T20:55:41.912Z,4.10
2017-05-29T20:58:10.218Z,5.12
2017-05-29T21:00:38.514Z,4.44
2017-05-29T21:03:06.846Z,4.40
2017-05-29T21:05:35.223Z,3.84
2017-05-29T21:08:04.285Z,5.02
2017-05-29T21:10:32.630Z,5.54
2017-05-29T21:13:01.704Z,5.10
2017-05-29T21:15:30.005Z,4.98
2017-05-29T21:17:58.360Z,4.26
2017-05-29T21:20:26.660Z,4.74
2017-05-29T21:22:54.969Z,5.72
2017-05-29T21:25:23.301Z,5.30
2017-05-29T21:27:51.600Z,5.62
2017-05-29T21:30:19.910Z,4.74
2017-05-29T21:32:48.354Z,4.30
2017-05-29T21:35:16.651Z,3.80
2017-05-29T21:37:45.725Z,4.60
2017-05-29T21:40:14.078Z,4.60
2017-05-29T21:42:42.381Z,4.38
2017-05-29T21:45:10.686Z,4.68
2017-05-29T21:47:39.054Z,4.22
2017-05-29T21:50:08.153Z,5.10
2017-05-29T21:52:36.456Z,4.42
2017-05-29T21:55:04.803Z,4.64
2017-05-29T21:57:33.109Z,4.98
2017-05-29T22:00:01.400Z,5.36
2017-05-29T22:02:29.738Z,5.36
2017-05-29T22:04:58.046Z,5.44
2017-05-29T22:07:26.353Z,5.14
2017-05-29T22:09:54.711Z,5.04
2017-05-29T22:12:23.009Z,4.70
2017-05-29T22:14:51.306Z,5.00
2017-05-29T22:17:19.670Z,4.42
2017-05-29T22:19:47.985Z,5.20
2017-05-29T22:22:16.289Z,5.52
2017-05-29T22:24:44.662Z,5.80
2017-05-29T22:27:12.979Z,4.92
2017-05-29T22:29:41.273Z,4.58
2017-05-29T22:32:09.619Z,4.78
2017-05-29T22:34:37.928Z,5.10
2017-05-29T22:37:06.233Z,5.56
2017-05-29T22:39:34.766Z,4.94
2017-05-29T22:42:03.066Z,5.92
2017-05-29T22:44:32.135Z,4.94
2017-05-29T22:47:00.473Z,4.52
2017-05-29T22:49:29.536Z,5.04
2017-05-29T22:51:58.646Z,4.34
2017-05-29T22:54:26.950Z,4.66
2017-05-29T22:56:55.249Z,4.64
2017-05-29T22:59:23.864Z,5.24
2017-05-29T23:01:52.169Z,5.20
2017-05-29T23:04:20.477Z,4.90
2017-05-29T23:06:48.857Z,4.84
2017-05-29T23:09:17.157Z,5.68
2017-05-29T23:11:45.458Z,5.40
2017-05-29T23:14:13.818Z,4.76
2017-05-29T23:16:42.125Z,4.14
2017-05-29T23:19:10.458Z,4.38
2017-05-29T23:21:38.816Z,5.78
2017-05-29T23:24:07.890Z,5.34
2017-05-29T23:26:36.191Z,5.70
2017-05-29T23:29:04.534Z,5.20
2017-05-29T23:31:32.865Z,5.28
2017-05-29T23:34:01.171Z,4.98
2017-05-29T23:36:29.511Z,5.32
2017-05-29T23:38:58.583Z,5.68
2017-05-29T23:41:26.894Z,4.88
2017-05-29T23:43:55.243Z,5.54
2017-05-29T23:46:23.598Z,5.26
2017-05-29T23:48:51.896Z,5.98
2017-05-29T23:51:20.243Z,5.38
2017-05-29T23:53:48.549Z,6.00
2017-05-29T23:56:16.856Z,5.54
2017-05-29T23:58:45.205Z,5.10
